createdAt,value
2023-02-18T00:00:29.625Z,7.60
2023-02-18T00:04:35.202Z,7.60
2023-02-18T00:08:42.688Z,7.70
2023-02-18T00:12:48.152Z,7.60
2023-02-18T00:16:53.842Z,7.70
2023-02-18T00:20:59.414Z,7.50
2023-02-18T00:25:05.092Z,7.50
2023-02-18T00:29:10.660Z,7.50
2023-02-18T00:33:16.174Z,7.50
2023-02-18T00:37:21.667Z,7.50
2023-02-18T00:41:29.395Z,7.50
2023-02-18T00:45:35.025Z,7.40
2023-02-18T00:49:40.518Z,7.40
2023-02-18T00:53:45.999Z,7.40
2023-02-18T00:57:51.925Z,7.50
2023-02-18T01:01:57.568Z,7.40
2023-02-18T01:06:04.699Z,7.40
2023-02-18T01:10:10.560Z,7.40
2023-02-18T01:14:15.994Z,7.40
2023-02-18T01:18:22.104Z,7.40
2023-02-18T01:22:30.654Z,7.40
2023-02-18T01:26:36.267Z,7.40
2023-02-18T01:30:42.587Z,7.30
2023-02-18T01:34:48.104Z,7.30
2023-02-18T01:38:53.760Z,7.30
2023-02-18T01:42:59.693Z,7.30
2023-02-18T01:47:05.182Z,7.30
2023-02-18T01:51:18.351Z,7.30
2023-02-18T01:55:23.944Z,7.30
2023-02-18T01:59:45.384Z,7.30
2023-02-18T02:03:50.849Z,7.30
2023-02-18T02:07:56.545Z,7.20
2023-02-18T02:12:26.411Z,7.20
2023-02-18T02:16:47.144Z,7.30
2023-02-18T02:21:11.710Z,7.20
2023-02-18T02:25:54.899Z,7.20
2023-02-18T02:30:09.485Z,7.20
2023-02-18T02:34:48.895Z,7.20
2023-02-18T02:39:06.749Z,7.20
2023-02-18T02:43:49.178Z,7.20
2023-02-18T02:48:37.069Z,7.20
2023-02-18T02:52:50.283Z,7.20
2023-02-18T02:57:28.486Z,7.10
2023-02-18T03:01:54.884Z,7.10
2023-02-18T03:06:03.711Z,7.10
2023-02-18T03:10:43.799Z,7.00
2023-02-18T03:15:12.915Z,7.00
2023-02-18T03:19:21.389Z,7.00
2023-02-18T03:23:33.402Z,6.90
2023-02-18T03:27:45.286Z,6.90
2023-02-18T03:31:58.696Z,6.90
2023-02-18T03:36:04.776Z,6.80
2023-02-18T03:40:11.892Z,6.80
2023-02-18T03:44:17.388Z,6.70
2023-02-18T03:48:23.107Z,6.70
2023-02-18T03:52:28.765Z,6.70
2023-02-18T03:56:35.892Z,6.60
2023-02-18T04:00:41.377Z,6.60
2023-02-18T04:04:46.856Z,6.60
2023-02-18T04:08:52.340Z,6.50
2023-02-18T04:12:57.907Z,6.60
2023-02-18T04:17:03.432Z,6.50
2023-02-18T04:21:08.873Z,6.50
2023-02-18T04:25:14.375Z,6.60
2023-02-18T04:29:19.903Z,6.60
2023-02-18T04:33:25.454Z,6.60
2023-02-18T04:37:30.952Z,6.60
2023-02-18T04:41:36.418Z,6.60
2023-02-18T04:45:41.958Z,6.60
2023-02-18T04:49:47.480Z,6.60
2023-02-18T04:53:53.096Z,6.60
2023-02-18T04:57:58.564Z,6.60
2023-02-18T05:02:04.266Z,6.70
2023-02-18T05:06:10.092Z,6.70
2023-02-18T05:10:18.444Z,6.70
2023-02-18T05:14:25.150Z,6.70
2023-02-18T05:18:30.758Z,6.70
2023-02-18T05:22:36.373Z,6.70
2023-02-18T05:26:41.817Z,6.70
2023-02-18T05:30:47.384Z,6.70
2023-02-18T05:34:52.880Z,6.70
2023-02-18T05:38:58.383Z,6.70
2023-02-18T05:43:03.962Z,6.70
2023-02-18T05:47:13.653Z,6.70
2023-02-18T05:51:19.161Z,6.60
2023-02-18T05:55:25.040Z,6.70
2023-02-18T05:59:30.566Z,6.70
2023-02-18T06:03:36.152Z,6.70
2023-02-18T06:07:41.641Z,6.70
2023-02-18T06:11:47.172Z,6.70
2023-02-18T06:15:53.939Z,6.70
2023-02-18T06:19:59.493Z,6.70
2023-02-18T06:24:05.543Z,6.70
2023-02-18T06:28:11.178Z,6.70
2023-02-18T06:32:16.789Z,6.70
2023-02-18T06:36:22.325Z,6.70
2023-02-18T06:40:27.862Z,6.70
2023-02-18T06:44:33.431Z,6.70
2023-02-18T06:48:39.069Z,6.70
2023-02-18T06:52:44.537Z,6.70
2023-02-18T06:56:50.997Z,6.70
2023-02-18T07:00:56.543Z,6.70
2023-02-18T07:05:02.236Z,6.70
2023-02-18T07:09:07.845Z,6.80
2023-02-18T07:13:13.461Z,6.80
2023-02-18T07:17:19.634Z,6.80
2023-02-18T07:21:25.209Z,6.80
2023-02-18T07:25:30.855Z,6.80
2023-02-18T07:29:36.318Z,6.80
2023-02-18T07:33:41.887Z,6.90
2023-02-18T07:37:49.392Z,6.90
2023-02-18T07:41:55.207Z,6.90
2023-02-18T07:46:06.173Z,6.90
2023-02-18T07:50:12.040Z,6.90
2023-02-18T07:54:18.321Z,6.90
2023-02-18T07:58:27.821Z,6.90
2023-02-18T08:02:33.400Z,6.90
2023-02-18T08:06:42.761Z,6.90
2023-02-18T08:10:49.301Z,7.00
2023-02-18T08:14:54.943Z,6.90
2023-02-18T08:19:01.534Z,6.90
2023-02-18T08:23:07.015Z,7.00
2023-02-18T08:27:13.434Z,7.00
2023-02-18T08:31:26.207Z,7.00
2023-02-18T08:35:31.870Z,7.00
2023-02-18T08:39:39.948Z,7.00
2023-02-18T08:43:46.225Z,7.10
2023-02-18T08:48:17.132Z,7.00
2023-02-18T08:52:17.219Z,7.00
2023-02-18T08:56:22.734Z,7.00
2023-02-18T09:00:28.785Z,7.10
2023-02-18T09:04:34.380Z,7.00
2023-02-18T09:08:39.950Z,7.00
2023-02-18T09:12:45.535Z,7.00
2023-02-18T09:16:51.008Z,7.00
2023-02-18T09:20:58.259Z,7.00
2023-02-18T09:25:04.461Z,7.00
2023-02-18T09:29:10.219Z,7.00
2023-02-18T09:33:16.136Z,7.00
2023-02-18T09:37:21.674Z,7.00
2023-02-18T09:41:50.573Z,7.00
2023-02-18T09:45:58.107Z,7.00
2023-02-18T09:50:20.365Z,7.00
2023-02-18T09:54:27.770Z,7.00
2023-02-18T09:58:34.568Z,7.00
2023-02-18T10:02:57.609Z,7.00
2023-02-18T10:07:04.014Z,7.00
2023-02-18T10:11:32.281Z,7.00
2023-02-18T10:15:38.765Z,7.00
2023-02-18T10:19:48.040Z,7.00
2023-02-18T10:24:07.524Z,7.00
2023-02-18T10:28:13.617Z,7.00
2023-02-18T10:32:23.991Z,7.10
2023-02-18T10:36:36.516Z,7.10
2023-02-18T10:41:42.503Z,7.10
2023-02-18T10:46:17.481Z,7.10
2023-02-18T10:50:36.049Z,7.20
2023-02-18T10:55:15.749Z,7.20
2023-02-18T10:59:32.382Z,7.30
2023-02-18T11:03:46.454Z,7.30
2023-02-18T11:07:58.587Z,7.30
2023-02-18T11:12:15.717Z,7.30
2023-02-18T11:16:43.672Z,7.30
2023-02-18T11:21:10.158Z,7.30
2023-02-18T11:25:36.973Z,7.40
2023-02-18T11:29:42.643Z,7.40
2023-02-18T11:34:07.115Z,7.30
2023-02-18T11:38:27.140Z,7.40
2023-02-18T11:42:32.752Z,7.30
2023-02-18T11:46:38.251Z,7.40
2023-02-18T11:50:44.979Z,7.40
2023-02-18T11:55:20.635Z,7.40
2023-02-18T11:59:27.276Z,7.40
2023-02-18T12:03:45.056Z,7.40
2023-02-18T12:08:00.465Z,7.40
2023-02-18T12:12:19.913Z,7.30
2023-02-18T12:16:46.585Z,7.30
2023-02-18T12:21:12.807Z,7.30
2023-02-18T12:26:15.967Z,7.30
2023-02-18T12:30:49.498Z,7.20
2023-02-18T12:35:34.397Z,7.20
2023-02-18T12:39:55.373Z,7.10
2023-02-18T12:44:45.829Z,7.00
2023-02-18T12:49:31.974Z,7.00
2023-02-18T12:53:59.985Z,6.80
2023-02-18T12:58:26.716Z,6.70
2023-02-18T13:02:50.290Z,6.70
2023-02-18T13:07:13.697Z,6.70
2023-02-18T13:11:48.469Z,6.70
2023-02-18T13:16:05.724Z,6.70
2023-02-18T13:20:45.733Z,6.60
2023-02-18T13:24:54.716Z,6.60
2023-02-18T13:29:27.379Z,6.50
2023-02-18T13:33:54.226Z,6.50
2023-02-18T13:38:26.945Z,6.50
2023-02-18T13:42:37.404Z,6.50
2023-02-18T13:46:55.137Z,6.50
2023-02-18T13:51:06.171Z,6.50
2023-02-18T13:55:39.925Z,6.60
2023-02-18T13:59:58.306Z,6.50
2023-02-18T14:04:39.501Z,6.50
2023-02-18T14:08:46.863Z,6.40
2023-02-18T14:12:58.372Z,6.40
2023-02-18T14:17:44.145Z,6.40
2023-02-18T14:21:49.822Z,6.50
2023-02-18T14:26:08.482Z,6.40
2023-02-18T14:30:28.492Z,6.40
2023-02-18T14:35:13.976Z,6.50
2023-02-18T14:39:43.196Z,6.50
2023-02-18T14:44:09.537Z,6.50
2023-02-18T14:48:45.825Z,6.50
2023-02-18T14:52:57.924Z,6.50
2023-02-18T14:57:17.400Z,6.40
2023-02-18T15:01:24.384Z,6.30
2023-02-18T15:05:32.564Z,6.30
2023-02-18T15:09:50.580Z,6.30
2023-02-18T15:13:56.267Z,6.30
2023-02-18T15:18:04.283Z,6.30
2023-02-18T15:22:26.101Z,6.40
2023-02-18T15:26:42.015Z,6.50
2023-02-18T15:30:47.519Z,6.40
2023-02-18T15:35:02.088Z,6.40
2023-02-18T15:39:09.626Z,6.50
2023-02-18T15:43:24.052Z,6.50
2023-02-18T15:47:30.317Z,6.60
2023-02-18T15:51:36.034Z,6.70
2023-02-18T15:55:46.663Z,6.60
2023-02-18T16:00:04.519Z,6.60
2023-02-18T16:04:15.344Z,6.50
2023-02-18T16:08:28.223Z,6.50
2023-02-18T16:12:34.589Z,6.50
2023-02-18T16:16:40.739Z,6.40
2023-02-18T16:21:01.969Z,6.40
2023-02-18T16:25:13.384Z,6.30
2023-02-18T16:29:26.333Z,6.20
2023-02-18T16:33:31.783Z,6.10
2023-02-18T16:37:40.434Z,6.10
2023-02-18T16:41:45.884Z,6.00
2023-02-18T16:45:57.881Z,6.00
2023-02-18T16:50:04.216Z,6.00
2023-02-18T16:54:13.896Z,5.90
2023-02-18T16:58:19.381Z,5.90
2023-02-18T17:02:25.724Z,5.80
2023-02-18T17:06:32.668Z,5.80
2023-02-18T17:10:38.155Z,5.70
2023-02-18T17:14:43.752Z,6.00
2023-02-18T17:18:49.465Z,5.90
2023-02-18T17:22:58.686Z,5.70
2023-02-18T17:27:04.250Z,5.60
2023-02-18T17:31:16.156Z,5.50
2023-02-18T17:35:23.531Z,5.40
2023-02-18T17:39:31.327Z,5.40
2023-02-18T17:43:38.090Z,5.30
2023-02-18T17:47:43.808Z,5.30
2023-02-18T17:51:49.426Z,5.20
2023-02-18T17:55:54.956Z,5.20
2023-02-18T18:00:00.619Z,5.20
2023-02-18T18:04:18.904Z,5.10
2023-02-18T18:08:24.476Z,5.10
2023-02-18T18:12:30.778Z,5.10
2023-02-18T18:16:36.300Z,5.10
2023-02-18T18:20:46.833Z,5.10
2023-02-18T18:24:52.364Z,5.10
2023-02-18T18:28:57.832Z,5.10
2023-02-18T18:33:12.420Z,5.10
2023-02-18T18:37:17.977Z,5.10
2023-02-18T18:41:23.538Z,5.10
2023-02-18T18:45:37.178Z,5.10
2023-02-18T18:49:42.750Z,5.10
2023-02-18T18:53:48.454Z,5.10
2023-02-18T18:57:54.777Z,5.10
2023-02-18T19:02:00.384Z,5.10
2023-02-18T19:06:06.051Z,5.00
2023-02-18T19:10:11.524Z,5.00
2023-02-18T19:14:17.074Z,4.90
2023-02-18T19:18:22.568Z,4.90
2023-02-18T19:22:28.328Z,4.90
2023-02-18T19:26:33.772Z,4.90
2023-02-18T19:30:40.413Z,4.90
2023-02-18T19:34:45.867Z,4.90
2023-02-18T19:38:51.598Z,4.80
2023-02-18T19:42:57.658Z,4.80
2023-02-18T19:47:03.373Z,4.80
2023-02-18T19:51:09.935Z,4.70
2023-02-18T19:55:15.529Z,4.70
2023-02-18T19:59:21.208Z,4.70
2023-02-18T20:03:26.854Z,4.70
2023-02-18T20:07:36.247Z,4.60
2023-02-18T20:11:41.762Z,4.60
2023-02-18T20:15:47.319Z,4.50
2023-02-18T20:19:53.157Z,4.50
2023-02-18T20:23:58.780Z,4.50
2023-02-18T20:28:04.287Z,4.50
2023-02-18T20:32:09.895Z,4.40
2023-02-18T20:36:15.513Z,4.40
2023-02-18T20:40:21.009Z,4.40
2023-02-18T20:44:27.038Z,4.40
2023-02-18T20:48:34.488Z,4.40
2023-02-18T20:52:40.572Z,4.40
2023-02-18T20:56:49.500Z,4.40
2023-02-18T21:01:01.287Z,4.30
2023-02-18T21:05:07.050Z,4.30
2023-02-18T21:09:15.033Z,4.30
2023-02-18T21:13:24.817Z,4.30
2023-02-18T21:17:30.232Z,4.30
2023-02-18T21:21:36.154Z,4.30
2023-02-18T21:25:41.681Z,4.30
2023-02-18T21:29:47.258Z,4.30
2023-02-18T21:33:52.916Z,4.30
2023-02-18T21:37:58.406Z,4.30
2023-02-18T21:42:04.773Z,4.30
2023-02-18T21:46:17.462Z,4.30
2023-02-18T21:50:23.022Z,4.40
2023-02-18T21:54:32.543Z,4.40
2023-02-18T21:58:39.206Z,4.40
2023-02-18T22:02:44.706Z,4.40
2023-02-18T22:06:50.141Z,4.40
2023-02-18T22:10:55.627Z,4.50
2023-02-18T22:15:01.140Z,4.50
2023-02-18T22:19:06.826Z,4.50
2023-02-18T22:23:13.462Z,4.40
2023-02-18T22:27:19.509Z,4.40
2023-02-18T22:31:28.321Z,4.50
2023-02-18T22:35:33.882Z,4.50
2023-02-18T22:39:39.503Z,4.50
2023-02-18T22:43:44.987Z,4.60
2023-02-18T22:47:50.511Z,4.60
2023-02-18T22:51:56.098Z,4.60
2023-02-18T22:56:12.260Z,4.60
2023-02-18T23:00:18.260Z,4.60
2023-02-18T23:04:23.836Z,4.60
2023-02-18T23:08:29.681Z,4.60
2023-02-18T23:12:35.279Z,4.60
2023-02-18T23:16:59.890Z,4.60
2023-02-18T23:21:23.230Z,4.70
2023-02-18T23:25:28.725Z,4.70
2023-02-18T23:29:34.440Z,4.70
2023-02-18T23:33:40.045Z,4.70
2023-02-18T23:38:03.528Z,4.80
2023-02-18T23:42:09.152Z,4.80
2023-02-18T23:46:16.886Z,4.80
2023-02-18T23:50:22.905Z,4.80
2023-02-18T23:54:28.581Z,4.80
2023-02-18T23:58:34.924Z,4.80
